createdAt,value
2018-12-15T00:00:17.461Z,14.60
2018-12-15T00:02:47.267Z,14.60
2018-12-15T00:05:16.963Z,14.60
2018-12-15T00:07:44.883Z,14.60
2018-12-15T00:10:12.555Z,14.60
2018-12-15T00:12:40.107Z,14.60
2018-12-15T00:15:08.747Z,14.70
2018-12-15T00:17:36.374Z,14.70
2018-12-15T00:20:04.594Z,14.60
2018-12-15T00:22:32.202Z,14.70
2018-12-15T00:24:59.815Z,14.60
2018-12-15T00:27:27.462Z,14.70
2018-12-15T00:29:55.081Z,14.60
2018-12-15T00:32:22.782Z,14.60
2018-12-15T00:34:50.502Z,14.70
2018-12-15T00:37:18.134Z,14.60
2018-12-15T00:39:46.521Z,14.60
2018-12-15T00:42:14.281Z,14.70
2018-12-15T00:44:41.871Z,14.60
2018-12-15T00:47:13.830Z,14.60
2018-12-15T00:49:39.567Z,14.60
2018-12-15T00:52:07.188Z,14.60
2018-12-15T00:54:34.797Z,14.60
2018-12-15T00:57:02.678Z,14.60
2018-12-15T00:59:30.305Z,14.60
2018-12-15T01:01:57.941Z,14.60
2018-12-15T01:04:25.906Z,14.60
2018-12-15T01:06:53.789Z,14.60
2018-12-15T01:09:21.383Z,14.60
2018-12-15T01:11:49.158Z,14.60
2018-12-15T01:14:16.992Z,14.60
2018-12-15T01:16:44.642Z,14.60
2018-12-15T01:19:12.397Z,14.60
2018-12-15T01:21:40.386Z,14.60
2018-12-15T01:24:08.047Z,14.60
2018-12-15T01:26:35.650Z,14.60
2018-12-15T01:29:03.319Z,14.60
2018-12-15T01:31:30.977Z,14.60
2018-12-15T01:33:58.786Z,14.60
2018-12-15T01:36:26.438Z,14.60
2018-12-15T01:38:54.045Z,14.60
2018-12-15T01:41:21.723Z,14.60
2018-12-15T01:43:49.416Z,14.60
2018-12-15T01:46:17.143Z,14.60
2018-12-15T01:48:44.880Z,14.60
2018-12-15T01:51:12.571Z,14.60
2018-12-15T01:53:40.279Z,14.60
2018-12-15T01:56:08.164Z,14.60
2018-12-15T01:58:35.810Z,14.60
2018-12-15T02:01:03.639Z,14.60
2018-12-15T02:03:31.302Z,14.60
2018-12-15T02:05:59.091Z,14.60
2018-12-15T02:08:27.007Z,14.60
2018-12-15T02:10:56.871Z,14.60
2018-12-15T02:13:24.581Z,14.60
2018-12-15T02:15:52.327Z,14.60
2018-12-15T02:18:19.973Z,14.60
2018-12-15T02:20:47.816Z,14.60
2018-12-15T02:23:15.791Z,14.60
2018-12-15T02:25:43.372Z,14.60
2018-12-15T02:28:11.191Z,14.60
2018-12-15T02:30:39.079Z,14.60
2018-12-15T02:37:54.099Z,14.60
2018-12-15T02:40:21.730Z,14.50
2018-12-15T02:42:49.347Z,14.50
2018-12-15T02:45:16.971Z,14.50
2018-12-15T02:47:44.843Z,14.50
2018-12-15T02:50:12.530Z,14.50
2018-12-15T02:52:41.490Z,14.50
2018-12-15T02:55:09.134Z,14.60
2018-12-15T02:57:36.802Z,14.60
2018-12-15T03:00:04.919Z,14.60
2018-12-15T03:02:32.703Z,14.60
2018-12-15T03:05:00.626Z,14.60
2018-12-15T03:07:28.306Z,14.60
2018-12-15T03:09:55.976Z,14.60
2018-12-15T03:12:23.764Z,14.60
2018-12-15T03:14:51.463Z,14.60
2018-12-15T03:17:19.162Z,14.60
2018-12-15T03:19:47.146Z,14.60
2018-12-15T03:22:14.772Z,14.60
2018-12-15T03:24:42.333Z,14.60
2018-12-15T03:27:09.983Z,14.60
2018-12-15T03:29:38.932Z,14.60
2018-12-15T03:32:06.487Z,14.60
2018-12-15T03:34:34.116Z,14.60
2018-12-15T03:37:01.990Z,14.60
2018-12-15T03:39:30.812Z,14.60
2018-12-15T03:41:58.589Z,14.60
2018-12-15T03:44:26.238Z,14.60
2018-12-15T03:46:53.939Z,14.60
2018-12-15T03:49:21.529Z,14.60
2018-12-15T03:51:49.219Z,14.60
2018-12-15T03:54:16.796Z,14.60
2018-12-15T03:56:44.660Z,14.60
2018-12-15T03:59:12.311Z,14.60
2018-12-15T04:01:40.431Z,14.60
2018-12-15T04:04:08.027Z,14.60
2018-12-15T04:06:35.643Z,14.60
2018-12-15T04:09:04.379Z,14.60
2018-12-15T04:11:34.063Z,14.60
2018-12-15T04:14:01.736Z,14.60
2018-12-15T04:16:29.564Z,14.60
2018-12-15T04:18:57.170Z,14.60
2018-12-15T04:21:24.879Z,14.60
2018-12-15T04:23:53.522Z,14.60
2018-12-15T04:26:21.207Z,14.60
2018-12-15T04:28:49.033Z,14.60
2018-12-15T04:31:16.917Z,14.60
2018-12-15T04:33:44.640Z,14.60
2018-12-15T04:36:16.433Z,14.60
2018-12-15T04:38:43.993Z,14.60
2018-12-15T04:41:11.647Z,14.60
2018-12-15T04:43:40.048Z,14.60
2018-12-15T04:46:07.652Z,14.60
2018-12-15T04:48:35.463Z,14.60
2018-12-15T04:51:03.057Z,14.60
2018-12-15T04:56:03.319Z,14.60
2018-12-15T04:58:32.936Z,14.50
2018-12-15T05:01:05.449Z,14.60
2018-12-15T05:03:36.242Z,14.50
2018-12-15T05:06:07.920Z,14.50
2018-12-15T05:08:37.876Z,14.60
2018-12-15T05:11:09.004Z,14.50
2018-12-15T05:13:38.075Z,14.50
2018-12-15T05:16:08.038Z,14.50
2018-12-15T05:18:38.120Z,14.60
2018-12-15T05:21:07.917Z,14.60
2018-12-15T05:23:37.224Z,14.60
2018-12-15T05:26:07.149Z,14.60
2018-12-15T05:28:35.043Z,14.60
2018-12-15T05:31:02.841Z,14.60
2018-12-15T05:33:30.745Z,14.60
2018-12-15T05:35:58.427Z,14.60
2018-12-15T05:38:26.329Z,14.60
2018-12-15T05:40:54.207Z,14.50
2018-12-15T05:43:21.899Z,14.60
2018-12-15T05:45:49.800Z,14.60
2018-12-15T05:48:17.509Z,14.60
2018-12-15T05:50:46.507Z,14.60
2018-12-15T05:53:14.474Z,14.50
2018-12-15T05:55:42.095Z,14.50
2018-12-15T05:58:09.674Z,14.60
2018-12-15T06:00:37.566Z,14.50
2018-12-15T06:03:05.267Z,14.50
2018-12-15T06:05:33.344Z,14.50
2018-12-15T06:08:01.221Z,14.50
2018-12-15T06:10:28.955Z,14.50
2018-12-15T06:12:56.519Z,14.60
2018-12-15T06:15:24.143Z,14.50
2018-12-15T06:17:51.823Z,14.50
2018-12-15T06:20:19.502Z,14.50
2018-12-15T06:22:47.194Z,14.50
2018-12-15T06:25:14.743Z,14.50
2018-12-15T06:27:42.684Z,14.50
2018-12-15T06:30:10.362Z,14.50
2018-12-15T06:32:38.514Z,14.50
2018-12-15T06:35:06.172Z,14.50
2018-12-15T06:37:33.721Z,14.50
2018-12-15T06:40:01.350Z,14.50
2018-12-15T06:42:28.970Z,14.50
2018-12-15T06:44:56.595Z,14.50
2018-12-15T06:47:24.246Z,14.50
2018-12-15T06:49:51.830Z,14.50
2018-12-15T06:52:19.506Z,14.50
2018-12-15T06:54:47.038Z,14.50
2018-12-15T06:57:15.674Z,14.50
2018-12-15T06:59:43.307Z,14.50
2018-12-15T07:02:11.006Z,14.50
2018-12-15T07:04:39.294Z,14.50
2018-12-15T07:07:06.994Z,14.50
2018-12-15T07:09:34.639Z,14.50
2018-12-15T07:12:02.370Z,14.50
2018-12-15T07:14:30.154Z,14.50
2018-12-15T07:16:57.875Z,14.50
2018-12-15T07:19:25.815Z,14.50
2018-12-15T07:21:53.454Z,14.50
2018-12-15T07:24:21.127Z,14.50
2018-12-15T07:26:48.707Z,14.50
2018-12-15T07:29:16.462Z,14.60
2018-12-15T07:31:44.158Z,14.50
2018-12-15T07:34:11.976Z,14.50
2018-12-15T07:36:39.842Z,14.50
2018-12-15T07:39:07.741Z,14.50
2018-12-15T07:41:36.453Z,14.50
2018-12-15T07:44:03.963Z,14.50
2018-12-15T07:46:31.715Z,14.50
2018-12-15T07:48:59.320Z,14.50
2018-12-15T07:51:26.898Z,14.50
2018-12-15T07:53:54.442Z,14.50
2018-12-15T07:56:26.102Z,14.50
2018-12-15T07:58:54.571Z,14.50
2018-12-15T08:01:22.108Z,14.50
2018-12-15T08:03:49.856Z,14.50
2018-12-15T08:06:17.422Z,14.50
2018-12-15T08:08:46.088Z,14.50
2018-12-15T08:11:19.306Z,14.50
2018-12-15T08:13:48.786Z,14.50
2018-12-15T08:16:16.330Z,14.50
2018-12-15T08:18:44.290Z,14.50
2018-12-15T08:21:13.121Z,14.60
2018-12-15T08:23:42.396Z,14.50
2018-12-15T08:26:10.567Z,14.50
2018-12-15T08:28:40.366Z,14.50
2018-12-15T08:31:08.619Z,14.50
2018-12-15T08:33:37.965Z,14.50
2018-12-15T08:36:07.866Z,14.50
2018-12-15T08:38:38.423Z,14.50
2018-12-15T08:41:07.768Z,14.50
2018-12-15T08:43:35.484Z,14.50
2018-12-15T08:46:06.125Z,14.50
2018-12-15T08:48:34.968Z,14.50
2018-12-15T08:51:03.890Z,14.50
2018-12-15T08:53:32.694Z,14.50
2018-12-15T08:56:03.347Z,14.50
2018-12-15T08:58:33.727Z,14.50
2018-12-15T09:01:04.065Z,14.50
2018-12-15T09:03:35.014Z,14.50
2018-12-15T09:06:05.607Z,14.50
2018-12-15T09:08:35.150Z,14.50
2018-12-15T09:11:05.153Z,14.50
2018-12-15T09:13:34.950Z,14.50
2018-12-15T09:16:04.826Z,14.50
2018-12-15T09:18:35.360Z,14.50
2018-12-15T09:21:03.464Z,14.50
2018-12-15T09:23:31.095Z,14.50
2018-12-15T09:25:58.891Z,14.50
2018-12-15T09:28:26.767Z,14.50
2018-12-15T09:30:54.508Z,14.50
2018-12-15T09:33:23.255Z,14.50
2018-12-15T09:35:50.859Z,14.50
2018-12-15T09:38:18.791Z,14.50
2018-12-15T09:40:46.573Z,14.50
2018-12-15T09:43:14.410Z,14.50
2018-12-15T09:45:42.031Z,14.50
2018-12-15T09:48:09.788Z,14.50
2018-12-15T09:50:38.589Z,14.50
2018-12-15T09:53:06.277Z,14.40
2018-12-15T09:55:33.811Z,14.50
2018-12-15T09:58:01.476Z,14.50
2018-12-15T10:00:29.123Z,14.50
2018-12-15T10:02:56.687Z,14.50
2018-12-15T10:05:24.391Z,14.50
2018-12-15T10:07:52.291Z,14.50
2018-12-15T10:10:20.004Z,14.50
2018-12-15T10:12:47.626Z,14.50
2018-12-15T10:15:15.996Z,14.50
2018-12-15T10:17:43.866Z,14.50
2018-12-15T10:20:11.663Z,14.50
2018-12-15T10:22:39.459Z,14.50
2018-12-15T10:25:07.076Z,14.50
2018-12-15T10:27:34.855Z,14.50
2018-12-15T10:30:08.241Z,14.50
2018-12-15T10:32:41.657Z,14.50
2018-12-15T10:35:09.596Z,14.50
2018-12-15T10:40:36.061Z,14.50
2018-12-15T10:43:03.703Z,14.50
2018-12-15T10:45:32.615Z,14.50
2018-12-15T10:48:00.291Z,14.50
2018-12-15T10:50:27.910Z,14.50
2018-12-15T10:52:56.775Z,14.50
2018-12-15T10:55:24.451Z,14.50
2018-12-15T10:57:52.080Z,14.50
2018-12-15T11:00:26.165Z,14.50
2018-12-15T11:02:55.554Z,14.50
2018-12-15T11:05:23.703Z,14.50
2018-12-15T11:07:51.764Z,14.50
2018-12-15T11:10:19.651Z,14.50
2018-12-15T11:12:47.304Z,14.50
2018-12-15T11:15:15.015Z,14.50
2018-12-15T11:17:42.711Z,14.50
2018-12-15T11:20:11.412Z,14.50
2018-12-15T11:22:39.442Z,14.50
2018-12-15T11:25:07.255Z,14.50
2018-12-15T11:27:34.824Z,14.50
2018-12-15T11:30:02.835Z,14.50
2018-12-15T11:32:30.926Z,14.50
2018-12-15T11:34:58.634Z,14.50
2018-12-15T11:37:26.359Z,14.50
2018-12-15T11:39:55.180Z,14.50
2018-12-15T11:42:23.064Z,14.50
2018-12-15T11:44:51.541Z,14.50
2018-12-15T11:47:19.241Z,14.50
2018-12-15T11:49:47.035Z,14.50
2018-12-15T11:52:14.892Z,14.50
2018-12-15T11:57:11.087Z,14.50
2018-12-15T11:59:39.773Z,14.50
2018-12-15T12:02:08.535Z,14.50
2018-12-15T12:04:36.252Z,14.50
2018-12-15T12:07:04.267Z,14.50
2018-12-15T12:09:31.874Z,14.50
2018-12-15T12:11:59.530Z,14.50
2018-12-15T12:14:27.184Z,14.50
2018-12-15T12:16:55.851Z,14.50
2018-12-15T12:19:23.691Z,14.50
2018-12-15T12:21:51.441Z,14.50
2018-12-15T12:24:19.067Z,14.50
2018-12-15T12:26:48.691Z,14.50
2018-12-15T12:29:16.453Z,14.50
2018-12-15T12:31:44.166Z,14.50
2018-12-15T12:34:11.891Z,14.50
2018-12-15T12:36:40.122Z,14.60
2018-12-15T12:39:08.824Z,14.60
2018-12-15T12:41:36.458Z,14.70
2018-12-15T12:44:04.121Z,14.70
2018-12-15T12:46:31.951Z,14.70
2018-12-15T12:48:59.549Z,14.80
2018-12-15T12:51:27.273Z,14.80
2018-12-15T12:53:55.151Z,14.80
2018-12-15T12:56:22.739Z,14.90
2018-12-15T12:58:50.355Z,14.90
2018-12-15T13:01:17.963Z,14.90
2018-12-15T13:03:45.674Z,14.90
2018-12-15T13:06:13.435Z,15.00
2018-12-15T13:08:41.420Z,15.00
2018-12-15T13:11:09.121Z,15.00
2018-12-15T13:13:36.809Z,15.10
2018-12-15T13:16:04.539Z,15.10
2018-12-15T13:18:32.263Z,15.20
2018-12-15T13:20:59.883Z,15.20
2018-12-15T13:23:27.450Z,15.20
2018-12-15T13:25:56.255Z,15.20
2018-12-15T13:28:23.959Z,15.20
2018-12-15T13:30:51.687Z,15.30
2018-12-15T13:33:30.808Z,15.30
2018-12-15T13:35:58.378Z,15.30
2018-12-15T13:38:26.122Z,15.40
2018-12-15T13:40:53.707Z,15.30
2018-12-15T13:43:21.415Z,15.40
2018-12-15T13:45:49.298Z,15.40
2018-12-15T13:48:17.038Z,15.40
2018-12-15T13:50:44.823Z,15.40
2018-12-15T13:53:12.586Z,15.40
2018-12-15T13:55:40.236Z,15.50
2018-12-15T13:58:08.090Z,15.50
2018-12-15T14:00:35.783Z,15.50
2018-12-15T14:03:03.610Z,15.50
2018-12-15T14:05:31.327Z,15.50
2018-12-15T14:07:58.927Z,15.60
2018-12-15T14:10:26.627Z,15.60
2018-12-15T14:12:54.262Z,15.60
2018-12-15T14:15:21.903Z,15.60
2018-12-15T14:17:49.587Z,15.60
2018-12-15T14:20:17.311Z,15.60
2018-12-15T14:22:45.206Z,15.70
2018-12-15T14:25:12.953Z,15.70
2018-12-15T14:27:40.839Z,15.70
2018-12-15T14:30:08.479Z,15.70
2018-12-15T14:32:36.228Z,15.70
2018-12-15T14:35:04.227Z,15.70
2018-12-15T14:37:32.798Z,15.70
2018-12-15T14:40:00.785Z,15.80
2018-12-15T14:42:28.423Z,15.80
2018-12-15T14:44:56.098Z,15.80
2018-12-15T14:47:24.003Z,15.80
2018-12-15T14:49:52.305Z,15.80
2018-12-15T14:52:21.209Z,15.80
2018-12-15T14:54:50.020Z,15.80
2018-12-15T14:57:22.500Z,15.80
2018-12-15T14:59:51.085Z,15.90
2018-12-15T15:02:20.004Z,15.90
2018-12-15T15:04:48.815Z,15.90
2018-12-15T15:07:17.715Z,15.90
2018-12-15T15:09:45.853Z,15.90
2018-12-15T15:12:15.230Z,15.90
2018-12-15T15:14:44.921Z,15.90
2018-12-15T15:17:13.652Z,16.00
2018-12-15T15:19:43.221Z,16.00
2018-12-15T15:22:10.911Z,16.00
2018-12-15T15:24:39.556Z,16.00
2018-12-15T15:27:09.929Z,15.90
2018-12-15T15:29:40.604Z,15.90
2018-12-15T15:32:09.056Z,16.00
2018-12-15T15:34:37.682Z,15.90
2018-12-15T15:37:07.859Z,16.00
2018-12-15T15:39:35.689Z,16.00
2018-12-15T15:42:04.429Z,16.00
2018-12-15T15:44:34.142Z,16.00
2018-12-15T15:47:02.919Z,16.00
2018-12-15T15:49:30.737Z,16.00
2018-12-15T15:51:58.634Z,16.00
2018-12-15T15:54:26.319Z,16.00
2018-12-15T15:56:55.139Z,16.00
2018-12-15T15:59:22.956Z,16.00
2018-12-15T16:01:50.922Z,16.10
2018-12-15T16:04:18.814Z,16.10
2018-12-15T16:06:46.456Z,16.10
2018-12-15T16:09:14.159Z,16.10
2018-12-15T16:11:41.823Z,16.10
2018-12-15T16:14:09.583Z,16.10
2018-12-15T16:16:38.556Z,16.10
2018-12-15T16:19:06.163Z,16.10
2018-12-15T16:21:33.753Z,16.10
2018-12-15T16:24:01.437Z,16.20
2018-12-15T16:26:29.039Z,16.20
2018-12-15T16:28:56.659Z,16.20
2018-12-15T16:31:24.297Z,16.20
2018-12-15T16:33:51.944Z,16.20
2018-12-15T16:36:19.580Z,16.20
2018-12-15T16:38:47.270Z,16.20
2018-12-15T16:41:16.955Z,16.20
2018-12-15T16:43:45.020Z,16.30
2018-12-15T16:46:12.685Z,16.30
2018-12-15T16:48:40.248Z,16.30
2018-12-15T16:51:08.003Z,16.30
2018-12-15T16:53:35.634Z,16.30
2018-12-15T16:56:03.296Z,16.40
2018-12-15T16:58:30.902Z,16.40
2018-12-15T17:00:58.463Z,16.40
2018-12-15T17:03:30.476Z,16.40
2018-12-15T17:05:55.829Z,16.40
2018-12-15T17:08:23.565Z,16.40
2018-12-15T17:10:51.701Z,16.40
2018-12-15T17:13:20.024Z,16.30
2018-12-15T17:15:47.599Z,16.30
2018-12-15T17:18:15.271Z,16.40
2018-12-15T17:20:42.931Z,16.30
2018-12-15T17:23:10.581Z,16.40
2018-12-15T17:25:38.591Z,16.40
2018-12-15T17:28:06.104Z,16.30
2018-12-15T17:30:33.751Z,16.30
2018-12-15T17:33:01.416Z,16.30
2018-12-15T17:35:29.020Z,16.30
2018-12-15T17:37:56.596Z,16.30
2018-12-15T17:40:24.519Z,16.30
2018-12-15T17:42:52.211Z,16.30
2018-12-15T17:45:19.851Z,16.30
2018-12-15T17:47:47.504Z,16.20
2018-12-15T17:50:15.528Z,16.20
2018-12-15T17:52:45.343Z,16.20
2018-12-15T17:55:13.008Z,16.20
2018-12-15T17:57:40.816Z,16.20
2018-12-15T18:00:10.746Z,16.20
2018-12-15T18:02:38.759Z,16.20
2018-12-15T18:05:07.658Z,16.20
2018-12-15T18:07:36.330Z,16.30
2018-12-15T18:10:09.284Z,16.30
2018-12-15T18:12:41.731Z,16.30
2018-12-15T18:15:11.118Z,16.40
2018-12-15T18:17:39.346Z,16.50
2018-12-15T18:20:09.247Z,16.60
2018-12-15T18:22:38.506Z,16.60
2018-12-15T18:25:09.445Z,16.70
2018-12-15T18:27:38.599Z,16.70
2018-12-15T18:30:09.221Z,16.70
2018-12-15T18:32:38.499Z,16.80
2018-12-15T18:35:08.373Z,16.80
2018-12-15T18:37:38.980Z,16.90
2018-12-15T18:40:07.980Z,16.90
2018-12-15T18:42:36.394Z,16.90
2018-12-15T18:45:05.727Z,16.90
2018-12-15T18:47:34.130Z,16.90
2018-12-15T18:50:02.573Z,17.00
2018-12-15T18:52:31.240Z,17.00
2018-12-15T18:54:58.968Z,17.00
2018-12-15T18:57:26.626Z,17.10
2018-12-15T18:59:54.403Z,17.10
2018-12-15T19:02:22.206Z,17.10
2018-12-15T19:04:51.309Z,17.10
2018-12-15T19:07:19.023Z,17.10
2018-12-15T19:09:46.680Z,17.10
2018-12-15T19:12:14.334Z,17.20
2018-12-15T19:14:42.165Z,17.20
2018-12-15T19:17:09.836Z,17.10
2018-12-15T19:19:37.454Z,17.00
2018-12-15T19:22:05.408Z,17.00
2018-12-15T19:24:33.320Z,16.90
2018-12-15T19:27:01.116Z,16.80
2018-12-15T19:29:28.880Z,16.70
2018-12-15T19:31:56.491Z,16.70
2018-12-15T19:34:24.103Z,16.60
2018-12-15T19:36:51.804Z,16.60
2018-12-15T19:39:19.512Z,16.60
2018-12-15T19:41:47.394Z,16.50
2018-12-15T19:44:15.120Z,16.50
2018-12-15T19:46:45.028Z,16.40
2018-12-15T19:49:13.574Z,16.40
2018-12-15T19:51:42.301Z,16.40
2018-12-15T19:54:09.981Z,16.30
2018-12-15T19:56:37.775Z,16.30
2018-12-15T19:59:05.400Z,16.30
2018-12-15T20:01:33.336Z,16.30
2018-12-15T20:04:02.360Z,16.20
2018-12-15T20:06:30.235Z,16.20
2018-12-15T20:08:57.823Z,16.20
2018-12-15T20:11:25.439Z,16.20
2018-12-15T20:13:53.398Z,16.10
2018-12-15T20:16:21.161Z,16.10
2018-12-15T20:18:49.151Z,16.10
2018-12-15T20:21:16.775Z,16.10
2018-12-15T20:23:44.473Z,16.10
2018-12-15T20:26:12.255Z,16.10
2018-12-15T20:28:40.462Z,16.00
2018-12-15T20:31:08.254Z,16.00
2018-12-15T20:33:36.018Z,16.00
2018-12-15T20:36:03.773Z,16.00
2018-12-15T20:38:31.483Z,16.00
2018-12-15T20:40:59.368Z,16.00
2018-12-15T20:43:27.047Z,16.00
2018-12-15T20:45:55.428Z,15.90
2018-12-15T20:48:23.017Z,15.90
2018-12-15T20:50:50.594Z,15.90
2018-12-15T20:53:18.328Z,15.90
2018-12-15T20:55:46.376Z,15.90
2018-12-15T20:58:14.134Z,15.90
2018-12-15T21:03:15.934Z,15.90
2018-12-15T21:05:43.575Z,15.80
2018-12-15T21:08:11.169Z,15.80
2018-12-15T21:10:40.236Z,15.80
2018-12-15T21:13:08.262Z,15.80
2018-12-15T21:15:40.626Z,15.80
2018-12-15T21:18:08.595Z,15.80
2018-12-15T21:20:36.201Z,15.80
2018-12-15T21:23:03.831Z,15.80
2018-12-15T21:25:31.505Z,15.80
2018-12-15T21:27:59.119Z,15.80
2018-12-15T21:30:26.786Z,15.80
2018-12-15T21:32:54.527Z,15.80
2018-12-15T21:35:22.191Z,15.80
2018-12-15T21:37:50.225Z,15.70
2018-12-15T21:40:17.958Z,15.70
2018-12-15T21:42:45.898Z,15.70
2018-12-15T21:45:13.743Z,15.70
2018-12-15T21:47:41.986Z,15.70
2018-12-15T21:50:09.707Z,15.70
2018-12-15T21:52:37.591Z,15.70
2018-12-15T21:55:05.885Z,15.70
2018-12-15T21:57:33.647Z,15.70
2018-12-15T22:00:01.247Z,15.70
2018-12-15T22:02:29.002Z,15.70
2018-12-15T22:04:58.049Z,15.70
2018-12-15T22:07:25.832Z,15.60
2018-12-15T22:09:53.537Z,15.60
2018-12-15T22:12:21.185Z,15.60
2018-12-15T22:14:48.947Z,15.60
2018-12-15T22:17:17.553Z,15.70
2018-12-15T22:19:45.186Z,15.60
2018-12-15T22:22:13.125Z,15.60
2018-12-15T22:24:41.203Z,15.60
2018-12-15T22:27:08.784Z,15.60
2018-12-15T22:29:36.470Z,15.60
2018-12-15T22:32:05.187Z,15.60
2018-12-15T22:34:32.731Z,15.60
2018-12-15T22:37:00.291Z,15.60
2018-12-15T22:39:27.956Z,15.60
2018-12-15T22:41:55.649Z,15.50
2018-12-15T22:44:23.543Z,15.60
2018-12-15T22:46:51.331Z,15.60
2018-12-15T22:49:18.924Z,15.60
2018-12-15T22:51:46.685Z,15.60
2018-12-15T22:54:16.175Z,15.50
2018-12-15T22:56:43.861Z,15.60
2018-12-15T22:59:11.647Z,15.50
2018-12-15T23:01:46.428Z,15.50
2018-12-15T23:04:14.767Z,15.60
2018-12-15T23:06:42.731Z,15.60
2018-12-15T23:09:10.395Z,15.40
2018-12-15T23:11:38.688Z,15.50
2018-12-15T23:14:06.512Z,15.50
2018-12-15T23:16:35.395Z,15.50
2018-12-15T23:19:04.671Z,15.50
2018-12-15T23:21:33.993Z,15.50
2018-12-15T23:24:01.771Z,15.50
2018-12-15T23:26:29.455Z,15.50
2018-12-15T23:28:58.153Z,15.50
2018-12-15T23:31:27.945Z,15.50
2018-12-15T23:33:57.313Z,15.50
2018-12-15T23:36:26.922Z,15.50
2018-12-15T23:38:54.925Z,15.50
2018-12-15T23:41:24.312Z,15.50
2018-12-15T23:43:54.211Z,15.50
2018-12-15T23:46:23.959Z,15.50
2018-12-15T23:48:53.322Z,15.50
2018-12-15T23:51:21.181Z,15.50
2018-12-15T23:53:48.815Z,15.40
2018-12-15T23:56:16.731Z,15.40
2018-12-15T23:58:44.481Z,15.40
